FDX9369 YSSY-KMEM
Flight info
| Callsign | FDX9369 |
|---|---|
| Flight time | N/A |
| Altitude | 29000 |
| Route | NOBAR B450 TEKEP DCT 27S70 DCT DOLSI B450 DUNAK/N0500F310 B450 DODUX DCT 14W70 DCT 07W60 DCT 01N50/N0492F330 DCT 09N40 DCT 16N30/N0482F350 DCT 22N20 DCT 27N110W DCT PELNI/N0473F370 UJ2 CUU DCT JCT DCT TXK HOBRK4 |
| Aircraft | B77L/H-SDE1E2E3FGHIJ2J3J4J5M1RWXY/LB1D1 |
Departure
| Time | 2026-05-03 22:16 |
|---|---|
| Airport | Sydney Kingsford Smith International Airport (YSSY) |
Arrival
| Time | N/A |
|---|---|
| Airport | Memphis International Airport (KMEM) |
| Time | Latitude | Longitude | Altitude | Speed | Heading |
|---|---|---|---|---|---|
| 2026-05-03 21:50 | -33.93553 | 151.18571 | 34 ft | 3 kts | 9° |
| 2026-05-03 21:52 | -33.93569 | 151.18568 | 34 ft | 4 kts | 9° |
| 2026-05-03 21:52 | -33.93592 | 151.18570 | 32 ft | 4 kts | 315° |
| 2026-05-03 21:53 | -33.93605 | 151.18596 | 33 ft | 3 kts | 291° |
| 2026-05-03 21:53 | -33.93606 | 151.18600 | 33 ft | 3 kts | 291° |
| 2026-05-03 22:01 | -33.93606 | 151.18597 | 34 ft | 2 kts | 280° |
| 2026-05-03 22:01 | -33.93622 | 151.18581 | 34 ft | 6 kts | 201° |
| 2026-05-03 22:01 | -33.93686 | 151.18560 | 34 ft | 13 kts | 208° |
| 2026-05-03 22:01 | -33.93734 | 151.18468 | 34 ft | 16 kts | 264° |
| 2026-05-03 22:02 | -33.93735 | 151.18439 | 34 ft | 2 kts | 268° |
| 2026-05-03 22:02 | -33.93736 | 151.18425 | 34 ft | 2 kts | 268° |
| 2026-05-03 22:02 | -33.93736 | 151.18411 | 34 ft | 2 kts | 268° |
| 2026-05-03 22:02 | -33.93736 | 151.18397 | 34 ft | 2 kts | 268° |
| 2026-05-03 22:03 | -33.93737 | 151.18362 | 34 ft | 11 kts | 268° |
| 2026-05-03 22:03 | -33.93731 | 151.18263 | 34 ft | 12 kts | 271° |
| 2026-05-03 22:03 | -33.93747 | 151.18165 | 34 ft | 12 kts | 254° |
| 2026-05-03 22:03 | -33.93771 | 151.18069 | 34 ft | 12 kts | 254° |
| 2026-05-03 22:04 | -33.93794 | 151.17973 | 34 ft | 12 kts | 254° |
| 2026-05-03 22:04 | -33.93817 | 151.17876 | 34 ft | 12 kts | 254° |
| 2026-05-03 22:04 | -33.93840 | 151.17780 | 34 ft | 12 kts | 254° |
| 2026-05-03 22:04 | -33.93863 | 151.17683 | 34 ft | 12 kts | 254° |
| 2026-05-03 22:05 | -33.93885 | 151.17588 | 33 ft | 12 kts | 254° |
| 2026-05-03 22:05 | -33.93908 | 151.17492 | 32 ft | 12 kts | 254° |
| 2026-05-03 22:05 | -33.93931 | 151.17396 | 31 ft | 12 kts | 254° |
| 2026-05-03 22:05 | -33.93953 | 151.17299 | 32 ft | 12 kts | 254° |
| 2026-05-03 22:06 | -33.94008 | 151.17237 | 33 ft | 12 kts | 182° |
| 2026-05-03 22:06 | -33.94091 | 151.17256 | 33 ft | 12 kts | 167° |
| 2026-05-03 22:06 | -33.94173 | 151.17278 | 33 ft | 12 kts | 168° |
| 2026-05-03 22:06 | -33.94255 | 151.17298 | 34 ft | 12 kts | 168° |
| 2026-05-03 22:07 | -33.94337 | 151.17319 | 34 ft | 12 kts | 168° |
| 2026-05-03 22:07 | -33.94419 | 151.17341 | 35 ft | 12 kts | 168° |
| 2026-05-03 22:07 | -33.94500 | 151.17362 | 35 ft | 12 kts | 168° |
| 2026-05-03 22:07 | -33.94582 | 151.17383 | 35 ft | 12 kts | 168° |
| 2026-05-03 22:08 | -33.94664 | 151.17405 | 35 ft | 12 kts | 168° |
| 2026-05-03 22:08 | -33.94747 | 151.17426 | 34 ft | 12 kts | 168° |
| 2026-05-03 22:08 | -33.94829 | 151.17447 | 34 ft | 12 kts | 168° |
| 2026-05-03 22:08 | -33.94911 | 151.17468 | 34 ft | 12 kts | 168° |
| 2026-05-03 22:09 | -33.94993 | 151.17489 | 34 ft | 12 kts | 168° |
| 2026-05-03 22:09 | -33.95075 | 151.17510 | 33 ft | 12 kts | 168° |
| 2026-05-03 22:09 | -33.95156 | 151.17532 | 34 ft | 12 kts | 168° |
| 2026-05-03 22:10 | -33.95320 | 151.17574 | 34 ft | 12 kts | 168° |
| 2026-05-03 22:10 | -33.95403 | 151.17595 | 34 ft | 12 kts | 168° |
| 2026-05-03 22:10 | -33.95485 | 151.17617 | 34 ft | 12 kts | 168° |
| 2026-05-03 22:10 | -33.95567 | 151.17638 | 34 ft | 12 kts | 168° |
| 2026-05-03 22:11 | -33.95649 | 151.17660 | 34 ft | 12 kts | 167° |
| 2026-05-03 22:11 | -33.95731 | 151.17682 | 35 ft | 12 kts | 167° |
| 2026-05-03 22:11 | -33.95813 | 151.17702 | 34 ft | 12 kts | 167° |
| 2026-05-03 22:11 | -33.95895 | 151.17724 | 34 ft | 12 kts | 168° |
| 2026-05-03 22:12 | -33.95976 | 151.17745 | 34 ft | 12 kts | 168° |
| 2026-05-03 22:12 | -33.96058 | 151.17766 | 35 ft | 12 kts | 168° |
| 2026-05-03 22:12 | -33.96141 | 151.17788 | 34 ft | 12 kts | 168° |
| 2026-05-03 22:12 | -33.96222 | 151.17809 | 34 ft | 12 kts | 168° |
| 2026-05-03 22:13 | -33.96304 | 151.17830 | 34 ft | 12 kts | 168° |
| 2026-05-03 22:13 | -33.96387 | 151.17852 | 34 ft | 12 kts | 168° |
| 2026-05-03 22:13 | -33.96436 | 151.17921 | 34 ft | 12 kts | 96° |
| 2026-05-03 22:13 | -33.96420 | 151.18021 | 34 ft | 12 kts | 68° |
| 2026-05-03 22:14 | -33.96367 | 151.18052 | 34 ft | 9 kts | 343° |
| 2026-05-03 22:14 | -33.96322 | 151.18037 | 34 ft | 0 kts | 347° |
| 2026-05-03 22:15 | -33.96304 | 151.18033 | 34 ft | 9 kts | 347° |
| 2026-05-03 22:15 | -33.96125 | 151.17989 | 31 ft | 55 kts | 348° |
| 2026-05-03 22:16 | -33.95502 | 151.17827 | 31 ft | 127 kts | 348° |
| 2026-05-03 22:16 | -33.94414 | 151.17539 | 38 ft | 190 kts | 347° |
| 2026-05-03 22:16 | -33.93077 | 151.17184 | 485 ft | 191 kts | 348° |
| 2026-05-03 22:16 | -33.91796 | 151.16940 | 1215 ft | 184 kts | 353° |
| 2026-05-03 22:17 | -33.90623 | 151.16370 | 1611 ft | 194 kts | 316° |
| 2026-05-03 22:17 | -33.90033 | 151.14898 | 1935 ft | 198 kts | 285° |
| 2026-05-03 22:17 | -33.89776 | 151.13311 | 2398 ft | 197 kts | 297° |
| 2026-05-03 22:17 | -33.89024 | 151.11877 | 2533 ft | 208 kts | 311° |
| 2026-05-03 22:18 | -33.88136 | 151.10495 | 2905 ft | 218 kts | 306° |
| 2026-05-03 22:18 | -33.87373 | 151.08896 | 3357 ft | 223 kts | 301° |
| 2026-05-03 22:18 | -33.86583 | 151.07241 | 3559 ft | 237 kts | 309° |
| 2026-05-03 22:18 | -33.85573 | 151.05573 | 3797 ft | 252 kts | 308° |
| 2026-05-03 22:19 | -33.84578 | 151.03835 | 4430 ft | 253 kts | 306° |
| 2026-05-03 22:19 | -33.83675 | 151.02029 | 5084 ft | 255 kts | 294° |
| 2026-05-03 22:19 | -33.83261 | 150.99917 | 5378 ft | 275 kts | 277° |
| 2026-05-03 22:19 | -33.83230 | 150.97688 | 5926 ft | 277 kts | 274° |
| 2026-05-03 22:20 | -33.83181 | 150.95393 | 6628 ft | 273 kts | 277° |
| 2026-05-03 22:20 | -33.83080 | 150.93125 | 7142 ft | 278 kts | 277° |
| 2026-05-03 22:20 | -33.83230 | 150.90747 | 7467 ft | 294 kts | 255° |
| 2026-05-03 22:20 | -33.84279 | 150.88617 | 7897 ft | 307 kts | 225° |
| 2026-05-03 22:21 | -33.86108 | 150.87351 | 8684 ft | 307 kts | 195° |
| 2026-05-03 22:21 | -33.88228 | 150.87316 | 9317 ft | 309 kts | 167° |
| 2026-05-03 22:21 | -33.90271 | 150.88139 | 9792 ft | 312 kts | 158° |
| 2026-05-03 22:21 | -33.92206 | 150.89369 | 10108 ft | 321 kts | 141° |
| 2026-05-03 22:22 | -33.93746 | 150.91381 | 10159 ft | 335 kts | 124° |
| 2026-05-03 22:22 | -33.95171 | 150.93644 | 10508 ft | 342 kts | 130° |
| 2026-05-03 22:22 | -33.96833 | 150.95740 | 10902 ft | 349 kts | 138° |
| 2026-05-03 22:22 | -33.98841 | 150.97439 | 11033 ft | 365 kts | 156° |
| 2026-05-03 22:23 | -34.01309 | 150.98214 | 11033 ft | 377 kts | 183° |
| 2026-05-03 22:23 | -34.03813 | 150.97587 | 11739 ft | 365 kts | 209° |
| 2026-05-03 22:23 | -34.05923 | 150.96038 | 12578 ft | 349 kts | 216° |
| 2026-05-03 22:23 | -34.08083 | 150.94690 | 13149 ft | 356 kts | 203° |
| 2026-05-03 22:24 | -34.10530 | 150.93759 | 13078 ft | 380 kts | 199° |
| 2026-05-03 22:24 | -34.13109 | 150.92908 | 13442 ft | 388 kts | 199° |
| 2026-05-03 22:24 | -34.15721 | 150.92070 | 14021 ft | 390 kts | 197° |
| 2026-05-03 22:24 | -34.18378 | 150.91273 | 14339 ft | 398 kts | 197° |
| 2026-05-03 22:25 | -34.21109 | 150.90438 | 14618 ft | 408 kts | 198° |
| 2026-05-03 22:25 | -34.23821 | 150.89530 | 15009 ft | 413 kts | 200° |
| 2026-05-03 22:25 | -34.26599 | 150.88674 | 15494 ft | 414 kts | 188° |
| 2026-05-03 22:25 | -34.29509 | 150.88872 | 15843 ft | 428 kts | 167° |
| 2026-05-03 22:26 | -34.32214 | 150.90401 | 16361 ft | 432 kts | 142° |
| 2026-05-03 22:26 | -34.34205 | 150.93084 | 17020 ft | 429 kts | 118° |
| 2026-05-03 22:26 | -34.35239 | 150.96429 | 17575 ft | 425 kts | 98° |
| 2026-05-03 22:26 | -34.35424 | 150.99980 | 17963 ft | 424 kts | 82° |
| 2026-05-03 22:27 | -34.34905 | 151.03502 | 18257 ft | 427 kts | 69° |
| 2026-05-03 22:27 | -34.33778 | 151.06820 | 18511 ft | 426 kts | 55° |
| 2026-05-03 22:27 | -34.31963 | 151.09583 | 18589 ft | 427 kts | 40° |
| 2026-05-03 22:27 | -34.29782 | 151.12043 | 18784 ft | 430 kts | 38° |
| 2026-05-03 22:28 | -34.27558 | 151.14472 | 19278 ft | 430 kts | 38° |
| 2026-05-03 22:28 | -34.25381 | 151.16938 | 19911 ft | 427 kts | 40° |
| 2026-05-03 22:28 | -34.23235 | 151.19415 | 20364 ft | 429 kts | 39° |
| 2026-05-03 22:28 | -34.21061 | 151.21942 | 20650 ft | 437 kts | 41° |
| 2026-05-03 22:29 | -34.18919 | 151.24577 | 21023 ft | 441 kts | 41° |
| 2026-05-03 22:29 | -34.16786 | 151.27255 | 21465 ft | 443 kts | 42° |
| 2026-05-03 22:29 | -34.14646 | 151.29941 | 21913 ft | 445 kts | 41° |
| 2026-05-03 22:29 | -34.12512 | 151.32598 | 22265 ft | 449 kts | 41° |
| 2026-05-03 22:30 | -34.10292 | 151.35342 | 22620 ft | 452 kts | 41° |
| 2026-05-03 22:30 | -34.08114 | 151.38021 | 23049 ft | 454 kts | 41° |
| 2026-05-03 22:30 | -34.05892 | 151.40745 | 23472 ft | 456 kts | 41° |
| 2026-05-03 22:30 | -34.03655 | 151.43482 | 23829 ft | 459 kts | 41° |
| 2026-05-03 22:31 | -34.01406 | 151.46230 | 24157 ft | 462 kts | 41° |
| 2026-05-03 22:31 | -33.99144 | 151.48992 | 24492 ft | 464 kts | 41° |
| 2026-05-03 22:31 | -33.96867 | 151.51771 | 24829 ft | 467 kts | 41° |
| 2026-05-03 22:31 | -33.94578 | 151.54562 | 25072 ft | 471 kts | 41° |
| 2026-05-03 22:32 | -33.92262 | 151.57385 | 25351 ft | 475 kts | 41° |
| 2026-05-03 22:32 | -33.89932 | 151.60223 | 25698 ft | 477 kts | 40° |
| 2026-05-03 22:32 | -33.87630 | 151.63027 | 26052 ft | 478 kts | 40° |
| 2026-05-03 22:32 | -33.85287 | 151.65879 | 26381 ft | 480 kts | 41° |
| 2026-05-03 22:33 | -33.82928 | 151.68744 | 26698 ft | 483 kts | 40° |
| 2026-05-03 22:33 | -33.80658 | 151.71749 | 26969 ft | 490 kts | 48° |
| 2026-05-03 22:33 | -33.78735 | 151.75163 | 27229 ft | 499 kts | 55° |
| 2026-05-03 22:33 | -33.77145 | 151.78910 | 27415 ft | 508 kts | 63° |
| 2026-05-03 22:34 | -33.75940 | 151.82936 | 27665 ft | 515 kts | 68° |
| 2026-05-03 22:34 | -33.74831 | 151.87041 | 27972 ft | 517 kts | 68° |
| 2026-05-03 22:34 | -33.73735 | 151.91164 | 28283 ft | 519 kts | 68° |
| 2026-05-03 22:34 | -33.72643 | 151.95246 | 28536 ft | 522 kts | 68° |
| 2026-05-03 22:35 | -33.71518 | 151.99400 | 28762 ft | 524 kts | 68° |
| 2026-05-03 22:35 | -33.70413 | 152.03419 | 28988 ft | 527 kts | 67° |
| 2026-05-03 22:35 | -33.69246 | 152.07619 | 29060 ft | 532 kts | 67° |
| 2026-05-03 22:36 | -33.66892 | 152.16020 | 29088 ft | 529 kts | 67° |
| 2026-05-03 22:36 | -33.64536 | 152.24391 | 29114 ft | 530 kts | 66° |
| 2026-05-03 22:37 | -33.62166 | 152.32787 | 29125 ft | 533 kts | 66° |
| 2026-05-03 22:37 | -33.59779 | 152.41228 | 29126 ft | 535 kts | 66° |
| 2026-05-03 22:38 | -33.57393 | 152.49648 | 29123 ft | 535 kts | 66° |
| 2026-05-03 22:38 | -33.55005 | 152.58050 | 29118 ft | 533 kts | 67° |
| 2026-05-03 22:39 | -33.52612 | 152.66445 | 29122 ft | 532 kts | 66° |
| 2026-05-03 22:39 | -33.50209 | 152.74845 | 29129 ft | 533 kts | 66° |
| 2026-05-03 22:40 | -33.47799 | 152.83244 | 29122 ft | 534 kts | 66° |
| 2026-05-03 22:40 | -33.45379 | 152.91656 | 29138 ft | 535 kts | 67° |
| 2026-05-03 22:41 | -33.42955 | 153.00059 | 29141 ft | 536 kts | 67° |
| 2026-05-03 22:41 | -33.40572 | 153.08298 | 29135 ft | 536 kts | 66° |
| 2026-05-03 22:42 | -33.38123 | 153.16735 | 29133 ft | 537 kts | 66° |
| 2026-05-03 22:42 | -33.35666 | 153.25178 | 29140 ft | 538 kts | 66° |
| 2026-05-03 22:43 | -33.33194 | 153.33646 | 29166 ft | 539 kts | 66° |
| 2026-05-03 22:43 | -33.30718 | 153.42108 | 29152 ft | 539 kts | 66° |
| 2026-05-03 22:44 | -33.28236 | 153.50564 | 29167 ft | 539 kts | 66° |
| 2026-05-03 22:44 | -33.25766 | 153.58959 | 29160 ft | 539 kts | 66° |
| 2026-05-03 22:45 | -33.23271 | 153.67407 | 29178 ft | 540 kts | 66° |
| 2026-05-03 22:45 | -33.20766 | 153.75869 | 29160 ft | 541 kts | 66° |
| 2026-05-03 22:46 | -33.18255 | 153.84326 | 29177 ft | 541 kts | 66° |
| 2026-05-03 22:46 | -33.15737 | 153.92783 | 29183 ft | 541 kts | 66° |
| 2026-05-03 22:47 | -33.13257 | 154.01087 | 29185 ft | 541 kts | 66° |
| 2026-05-03 22:47 | -33.10741 | 154.09490 | 29193 ft | 542 kts | 66° |
| 2026-05-03 22:48 | -33.08201 | 154.17950 | 29187 ft | 542 kts | 66° |
| 2026-05-03 22:48 | -33.05656 | 154.26402 | 29192 ft | 542 kts | 66° |
| 2026-05-03 22:49 | -33.03106 | 154.34845 | 29189 ft | 542 kts | 66° |
| 2026-05-03 22:49 | -33.00566 | 154.43234 | 29193 ft | 541 kts | 66° |
| 2026-05-03 22:50 | -32.98012 | 154.51645 | 29197 ft | 542 kts | 65° |
| 2026-05-03 22:50 | -32.95436 | 154.60102 | 29203 ft | 544 kts | 65° |
| 2026-05-03 22:51 | -32.92846 | 154.68582 | 29190 ft | 546 kts | 66° |
| 2026-05-03 22:51 | -32.90687 | 154.75638 | 29198 ft | 546 kts | 66° |
| 2026-05-03 22:52 | -32.87659 | 154.85507 | 29202 ft | 547 kts | 66° |
| 2026-05-03 22:52 | -32.85048 | 154.93993 | 29191 ft | 546 kts | 66° |
| 2026-05-03 22:53 | -32.82958 | 155.00887 | 29192 ft | 545 kts | 66° |
| 2026-05-03 22:53 | -32.80431 | 155.09350 | 29194 ft | 541 kts | 66° |
| 2026-05-03 22:54 | -32.77513 | 155.19097 | 29201 ft | 537 kts | 66° |
| 2026-05-03 22:54 | -32.75000 | 155.27430 | 29205 ft | 535 kts | 66° |
| 2026-05-03 22:55 | -32.72908 | 155.34339 | 29211 ft | 535 kts | 66° |
| 2026-05-03 22:55 | -32.70383 | 155.42651 | 29199 ft | 536 kts | 66° |
| 2026-05-03 22:56 | -32.67848 | 155.50980 | 29225 ft | 538 kts | 66° |
| 2026-05-03 22:56 | -32.65311 | 155.59298 | 29218 ft | 540 kts | 66° |
| 2026-05-03 22:57 | -32.62745 | 155.67686 | 29207 ft | 542 kts | 66° |
| 2026-05-03 22:57 | -32.60164 | 155.76100 | 29224 ft | 543 kts | 66° |
| 2026-05-03 22:58 | -32.57573 | 155.84526 | 29215 ft | 544 kts | 66° |
| 2026-05-03 22:58 | -32.54977 | 155.92949 | 29209 ft | 543 kts | 66° |
| 2026-05-03 22:59 | -32.52430 | 156.01185 | 29213 ft | 543 kts | 66° |
| 2026-05-03 22:59 | -32.49843 | 156.09527 | 29222 ft | 543 kts | 66° |
| 2026-05-03 23:00 | -32.47237 | 156.17909 | 29222 ft | 543 kts | 66° |
| 2026-05-03 23:00 | -32.44624 | 156.26290 | 29216 ft | 543 kts | 66° |
| 2026-05-03 23:01 | -32.42003 | 156.34673 | 29224 ft | 543 kts | 66° |
| 2026-05-03 23:01 | -32.39381 | 156.43037 | 29227 ft | 542 kts | 66° |
| 2026-05-03 23:02 | -32.36772 | 156.51338 | 29225 ft | 541 kts | 66° |
| 2026-05-03 23:02 | -32.34144 | 156.59679 | 29219 ft | 541 kts | 66° |
| 2026-05-03 23:03 | -32.31514 | 156.68002 | 29231 ft | 540 kts | 66° |
| 2026-05-03 23:03 | -32.28877 | 156.76326 | 29230 ft | 541 kts | 66° |
| 2026-05-03 23:04 | -32.26232 | 156.84650 | 29213 ft | 541 kts | 66° |
| 2026-05-03 23:04 | -32.23604 | 156.92904 | 29235 ft | 541 kts | 66° |
| 2026-05-03 23:05 | -32.21004 | 157.01044 | 29228 ft | 541 kts | 66° |
| 2026-05-03 23:05 | -32.18346 | 157.09348 | 29236 ft | 540 kts | 66° |
| 2026-05-03 23:06 | -32.15685 | 157.17639 | 29240 ft | 540 kts | 66° |
| 2026-05-03 23:06 | -32.13033 | 157.25879 | 29236 ft | 541 kts | 66° |
| 2026-05-03 23:07 | -32.10357 | 157.34170 | 29230 ft | 541 kts | 67° |
| 2026-05-03 23:07 | -32.07674 | 157.42464 | 29238 ft | 541 kts | 67° |
| 2026-05-03 23:08 | -32.04988 | 157.50746 | 29239 ft | 541 kts | 67° |
| 2026-05-03 23:08 | -32.02294 | 157.59031 | 29237 ft | 541 kts | 67° |
| 2026-05-03 23:09 | -31.99618 | 157.67238 | 29242 ft | 541 kts | 67° |
| 2026-05-03 23:09 | -31.96915 | 157.75508 | 29238 ft | 541 kts | 67° |
| 2026-05-03 23:10 | -31.94208 | 157.83770 | 29226 ft | 541 kts | 67° |
| 2026-05-03 23:10 | -31.91498 | 157.92016 | 29237 ft | 540 kts | 67° |
| 2026-05-03 23:11 | -31.88826 | 158.00130 | 29244 ft | 540 kts | 67° |
| 2026-05-03 23:11 | -31.86128 | 158.08299 | 29241 ft | 540 kts | 67° |
| 2026-05-03 23:12 | -31.83403 | 158.16532 | 29241 ft | 540 kts | 67° |
| 2026-05-03 23:12 | -31.80673 | 158.24757 | 29241 ft | 541 kts | 67° |
| 2026-05-03 23:13 | -31.77934 | 158.32988 | 29250 ft | 541 kts | 67° |
| 2026-05-03 23:13 | -31.75207 | 158.41164 | 29236 ft | 541 kts | 67° |
| 2026-05-03 23:14 | -31.72458 | 158.49387 | 29247 ft | 541 kts | 67° |
| 2026-05-03 23:14 | -31.69701 | 158.57612 | 29241 ft | 541 kts | 67° |
| 2026-05-03 23:15 | -31.66956 | 158.65778 | 29240 ft | 541 kts | 67° |
| 2026-05-03 23:15 | -31.64191 | 158.73987 | 29246 ft | 541 kts | 67° |
| 2026-05-03 23:16 | -31.61419 | 158.82195 | 29242 ft | 541 kts | 67° |
| 2026-05-03 23:16 | -31.58643 | 158.90394 | 29243 ft | 541 kts | 67° |
| 2026-05-03 23:17 | -31.55863 | 158.98589 | 29239 ft | 541 kts | 67° |
| 2026-05-03 23:17 | -31.53157 | 159.06566 | 29240 ft | 541 kts | 68° |
| 2026-05-03 23:18 | -31.50902 | 159.14978 | 29251 ft | 541 kts | 73° |
| 2026-05-03 23:18 | -31.48855 | 159.23464 | 29236 ft | 542 kts | 74° |
| 2026-05-03 23:19 | -31.46784 | 159.31959 | 29244 ft | 542 kts | 73° |
| 2026-05-03 23:19 | -31.44693 | 159.40385 | 29230 ft | 543 kts | 73° |
| 2026-05-03 23:20 | -31.42566 | 159.48878 | 29242 ft | 543 kts | 73° |
| 2026-05-03 23:20 | -31.40436 | 159.57357 | 29251 ft | 543 kts | 73° |
| 2026-05-03 23:21 | -31.38303 | 159.65831 | 29243 ft | 543 kts | 73° |
| 2026-05-03 23:21 | -31.36163 | 159.74314 | 29246 ft | 543 kts | 73° |
| 2026-05-03 23:22 | -31.32956 | 159.86979 | 29254 ft | 544 kts | 73° |
| 2026-05-03 23:22 | -31.30799 | 159.95461 | 29242 ft | 545 kts | 73° |
| 2026-05-03 23:23 | -31.28676 | 160.03787 | 29231 ft | 546 kts | 73° |
| 2026-05-03 23:23 | -31.26502 | 160.12285 | 29248 ft | 545 kts | 73° |
| 2026-05-03 23:24 | -31.24344 | 160.20697 | 29246 ft | 544 kts | 73° |
| 2026-05-03 23:24 | -31.22163 | 160.29173 | 29235 ft | 545 kts | 73° |
| 2026-05-03 23:25 | -31.19977 | 160.37640 | 29249 ft | 545 kts | 73° |
| 2026-05-03 23:25 | -31.17783 | 160.46115 | 29240 ft | 545 kts | 73° |
| 2026-05-03 23:26 | -31.15579 | 160.54604 | 29241 ft | 546 kts | 73° |
| 2026-05-03 23:26 | -31.13385 | 160.63029 | 29241 ft | 547 kts | 74° |
| 2026-05-03 23:27 | -31.11168 | 160.71518 | 29239 ft | 547 kts | 73° |
| 2026-05-03 23:27 | -31.08945 | 160.80002 | 29237 ft | 547 kts | 73° |
| 2026-05-03 23:28 | -31.06717 | 160.88479 | 29249 ft | 546 kts | 74° |
| 2026-05-03 23:28 | -31.04499 | 160.96894 | 29237 ft | 547 kts | 74° |
| 2026-05-03 23:29 | -31.02306 | 161.05194 | 29241 ft | 547 kts | 74° |
| 2026-05-03 23:29 | -31.00061 | 161.13664 | 29239 ft | 547 kts | 74° |
| 2026-05-03 23:30 | -30.97816 | 161.22107 | 29239 ft | 547 kts | 74° |
| 2026-05-03 23:30 | -30.95573 | 161.30520 | 29222 ft | 547 kts | 74° |
| 2026-05-03 23:31 | -30.93315 | 161.38963 | 29236 ft | 546 kts | 74° |
| 2026-05-03 23:31 | -30.91051 | 161.47409 | 29241 ft | 546 kts | 74° |
| 2026-05-03 23:32 | -30.88779 | 161.55854 | 29239 ft | 547 kts | 74° |
| 2026-05-03 23:32 | -30.86501 | 161.64301 | 29249 ft | 546 kts | 74° |
| 2026-05-03 23:33 | -30.84237 | 161.72669 | 29234 ft | 545 kts | 74° |
| 2026-05-03 23:33 | -30.81958 | 161.81071 | 29237 ft | 544 kts | 74° |
| 2026-05-03 23:34 | -30.79674 | 161.89466 | 29239 ft | 544 kts | 74° |
| 2026-05-03 23:34 | -30.77390 | 161.97838 | 29224 ft | 544 kts | 74° |
| 2026-05-03 23:35 | -30.75155 | 162.06009 | 29240 ft | 544 kts | 74° |
| 2026-05-03 23:35 | -30.72852 | 162.14402 | 29241 ft | 546 kts | 74° |
| 2026-05-03 23:36 | -30.70539 | 162.22810 | 29234 ft | 547 kts | 74° |
| 2026-05-03 23:36 | -30.68216 | 162.31231 | 29248 ft | 547 kts | 74° |
| 2026-05-03 23:37 | -30.65908 | 162.39572 | 29234 ft | 546 kts | 74° |
| 2026-05-03 23:37 | -30.63585 | 162.47942 | 29229 ft | 544 kts | 74° |
| 2026-05-03 23:38 | -30.61261 | 162.56296 | 29234 ft | 543 kts | 74° |
| 2026-05-03 23:38 | -30.58938 | 162.64625 | 29242 ft | 542 kts | 74° |
| 2026-05-03 23:39 | -30.56611 | 162.72943 | 29234 ft | 542 kts | 74° |
| 2026-05-03 23:39 | -30.54298 | 162.81189 | 29234 ft | 541 kts | 74° |
| 2026-05-03 23:40 | -30.51962 | 162.89498 | 29233 ft | 542 kts | 74° |
| 2026-05-03 23:40 | -30.49608 | 162.97797 | 29249 ft | 542 kts | 72° |
| 2026-05-03 23:41 | -30.46605 | 163.05562 | 29231 ft | 542 kts | 63° |
| 2026-05-03 23:41 | -30.43018 | 163.13232 | 29228 ft | 541 kts | 63° |
| 2026-05-03 23:42 | -30.39442 | 163.20885 | 29215 ft | 540 kts | 63° |
| 2026-05-03 23:42 | -30.35898 | 163.28559 | 29231 ft | 541 kts | 63° |
| 2026-05-03 23:43 | -30.32358 | 163.36260 | 29234 ft | 542 kts | 63° |
| 2026-05-03 23:43 | -30.28838 | 163.43908 | 29221 ft | 542 kts | 63° |
| 2026-05-03 23:44 | -30.25289 | 163.51593 | 29224 ft | 541 kts | 63° |
| 2026-05-03 23:44 | -30.21737 | 163.59265 | 29221 ft | 541 kts | 63° |
| 2026-05-03 23:45 | -30.18186 | 163.66918 | 29226 ft | 540 kts | 63° |
| 2026-05-03 23:45 | -30.14635 | 163.74557 | 29218 ft | 539 kts | 63° |
| 2026-05-03 23:46 | -30.11114 | 163.82119 | 29214 ft | 537 kts | 63° |
| 2026-05-03 23:46 | -30.07572 | 163.89711 | 29220 ft | 537 kts | 63° |
| 2026-05-03 23:47 | -30.04028 | 163.97290 | 29219 ft | 536 kts | 63° |
| 2026-05-03 23:47 | -30.00564 | 164.04687 | 29230 ft | 536 kts | 63° |
| 2026-05-03 23:48 | -29.97018 | 164.12243 | 29199 ft | 536 kts | 63° |
| 2026-05-03 23:48 | -29.93496 | 164.19731 | 29208 ft | 535 kts | 63° |
| 2026-05-03 23:49 | -29.89944 | 164.27272 | 29217 ft | 535 kts | 63° |
| 2026-05-03 23:49 | -29.86387 | 164.34808 | 29214 ft | 536 kts | 63° |
| 2026-05-03 23:50 | -29.83425 | 164.41073 | 29231 ft | 536 kts | 63° |
| 2026-05-03 23:50 | -29.79257 | 164.49870 | 29211 ft | 535 kts | 63° |
| 2026-05-03 23:51 | -29.75715 | 164.57331 | 29215 ft | 534 kts | 63° |
| 2026-05-03 23:51 | -29.72151 | 164.64825 | 29224 ft | 533 kts | 63° |
| 2026-05-03 23:52 | -29.68586 | 164.72306 | 29227 ft | 533 kts | 63° |
| 2026-05-03 23:52 | -29.65021 | 164.79773 | 29218 ft | 533 kts | 62° |
| 2026-05-03 23:53 | -29.61471 | 164.87196 | 29216 ft | 533 kts | 62° |
| 2026-05-03 23:53 | -29.57897 | 164.94653 | 29203 ft | 533 kts | 62° |
| 2026-05-03 23:54 | -29.54394 | 165.01950 | 29212 ft | 533 kts | 62° |
| 2026-05-03 23:54 | -29.50809 | 165.09402 | 29225 ft | 533 kts | 63° |
| 2026-05-03 23:55 | -29.47209 | 165.16873 | 29204 ft | 534 kts | 63° |
| 2026-05-03 23:55 | -29.43631 | 165.24285 | 29195 ft | 535 kts | 63° |
| 2026-05-03 23:56 | -29.40019 | 165.31751 | 29199 ft | 536 kts | 63° |
| 2026-05-03 23:56 | -29.36401 | 165.39218 | 29207 ft | 536 kts | 62° |
| 2026-05-03 23:57 | -29.32777 | 165.46683 | 29192 ft | 536 kts | 62° |
| 2026-05-03 23:57 | -29.29145 | 165.54149 | 29190 ft | 536 kts | 62° |
| 2026-05-03 23:58 | -29.25512 | 165.61604 | 29201 ft | 536 kts | 62° |
| 2026-05-03 23:58 | -29.21902 | 165.69000 | 29204 ft | 536 kts | 62° |
| 2026-05-03 23:59 | -29.18262 | 165.76442 | 29187 ft | 536 kts | 62° |
| 2026-05-03 23:59 | -29.14618 | 165.83879 | 29189 ft | 536 kts | 62° |
| 2026-05-04 00:00 | -29.10967 | 165.91317 | 29193 ft | 536 kts | 62° |
| 2026-05-04 00:00 | -29.07311 | 165.98749 | 29180 ft | 536 kts | 63° |
| 2026-05-04 00:01 | -29.03749 | 166.05980 | 29189 ft | 537 kts | 62° |
| 2026-05-04 00:01 | -29.00081 | 166.13411 | 29188 ft | 537 kts | 62° |
| 2026-05-04 00:02 | -28.96411 | 166.20834 | 29181 ft | 537 kts | 62° |
| 2026-05-04 00:02 | -28.92735 | 166.28254 | 29185 ft | 537 kts | 62° |
| 2026-05-04 00:03 | -28.89084 | 166.35610 | 29181 ft | 536 kts | 62° |
| 2026-05-04 00:03 | -28.85405 | 166.43010 | 29183 ft | 536 kts | 62° |
| 2026-05-04 00:04 | -28.81726 | 166.50396 | 29180 ft | 535 kts | 62° |
| 2026-05-04 00:04 | -28.78042 | 166.57780 | 29184 ft | 536 kts | 62° |
| 2026-05-04 00:05 | -28.74379 | 166.65109 | 29182 ft | 536 kts | 62° |
| 2026-05-04 00:05 | -28.70687 | 166.72483 | 29183 ft | 536 kts | 62° |
| 2026-05-04 00:06 | -28.66991 | 166.79851 | 29183 ft | 536 kts | 62° |
| 2026-05-04 00:06 | -28.63287 | 166.87220 | 29199 ft | 536 kts | 62° |
| 2026-05-04 00:07 | -28.59581 | 166.94581 | 29167 ft | 536 kts | 62° |
| 2026-05-04 00:07 | -28.55947 | 167.01789 | 29178 ft | 535 kts | 62° |
| 2026-05-04 00:08 | -28.52237 | 167.09131 | 29179 ft | 535 kts | 62° |
| 2026-05-04 00:08 | -28.48548 | 167.16421 | 29171 ft | 535 kts | 62° |
| 2026-05-04 00:09 | -28.44832 | 167.23750 | 29188 ft | 535 kts | 62° |
| 2026-05-04 00:09 | -28.41115 | 167.31069 | 29171 ft | 534 kts | 62° |
| 2026-05-04 00:10 | -28.37399 | 167.38373 | 29162 ft | 534 kts | 62° |
| 2026-05-04 00:10 | -28.33710 | 167.45611 | 29156 ft | 532 kts | 62° |
| 2026-05-04 00:11 | -28.29999 | 167.52880 | 29165 ft | 532 kts | 62° |
| 2026-05-04 00:11 | -28.26288 | 167.60136 | 29178 ft | 532 kts | 62° |
| 2026-05-04 00:12 | -28.22575 | 167.67384 | 29169 ft | 530 kts | 62° |
| 2026-05-04 00:12 | -28.18898 | 167.74548 | 29161 ft | 528 kts | 62° |
| 2026-05-04 00:13 | -28.15207 | 167.81728 | 29166 ft | 527 kts | 62° |
| 2026-05-04 00:13 | -28.11519 | 167.88890 | 29159 ft | 526 kts | 62° |
| 2026-05-04 00:14 | -28.07829 | 167.96044 | 29188 ft | 526 kts | 62° |
| 2026-05-04 00:14 | -28.04226 | 168.03018 | 29166 ft | 526 kts | 62° |
| 2026-05-04 00:15 | -28.00536 | 168.10145 | 29160 ft | 524 kts | 62° |
| 2026-05-04 00:15 | -27.96857 | 168.17247 | 29158 ft | 523 kts | 62° |
| 2026-05-04 00:16 | -27.93172 | 168.24344 | 29153 ft | 523 kts | 62° |
| 2026-05-04 00:16 | -27.89490 | 168.31422 | 29160 ft | 522 kts | 62° |
| 2026-05-04 00:17 | -27.85829 | 168.38447 | 29146 ft | 522 kts | 62° |
| 2026-05-04 00:17 | -27.82145 | 168.45508 | 29156 ft | 522 kts | 62° |
| 2026-05-04 00:18 | -27.78453 | 168.52571 | 29153 ft | 522 kts | 62° |
| 2026-05-04 00:18 | -27.74757 | 168.59631 | 29156 ft | 523 kts | 62° |
| 2026-05-04 00:19 | -27.71074 | 168.66653 | 29152 ft | 523 kts | 62° |
| 2026-05-04 00:19 | -27.67364 | 168.73716 | 29156 ft | 523 kts | 62° |
| 2026-05-04 00:20 | -27.63650 | 168.80774 | 29143 ft | 523 kts | 62° |
| 2026-05-04 00:20 | -27.59944 | 168.87805 | 29127 ft | 521 kts | 62° |
| 2026-05-04 00:21 | -27.56238 | 168.94826 | 29138 ft | 521 kts | 62° |
| 2026-05-04 00:21 | -27.52607 | 169.01693 | 29147 ft | 521 kts | 62° |
| 2026-05-04 00:22 | -27.48923 | 169.08650 | 29148 ft | 521 kts | 61° |
| 2026-05-04 00:22 | -27.45202 | 169.15667 | 29248 ft | 525 kts | 61° |
| 2026-05-04 00:23 | -27.43327 | 169.19198 | 29566 ft | 526 kts | 62° |
| 2026-05-04 00:23 | -27.41447 | 169.22735 | 29956 ft | 526 kts | 62° |
| 2026-05-04 00:23 | -27.39571 | 169.26259 | 30338 ft | 525 kts | 62° |
| 2026-05-04 00:23 | -27.37693 | 169.29785 | 30641 ft | 525 kts | 62° |
| 2026-05-04 00:24 | -27.35814 | 169.33312 | 30897 ft | 526 kts | 62° |
| 2026-05-04 00:24 | -27.33935 | 169.36836 | 31118 ft | 527 kts | 62° |
| 2026-05-04 00:24 | -27.32046 | 169.40376 | 31373 ft | 528 kts | 62° |
| 2026-05-04 00:24 | -27.30155 | 169.43921 | 31493 ft | 529 kts | 62° |
| 2026-05-04 00:25 | -27.26509 | 169.50945 | 31414 ft | 517 kts | 62° |
| 2026-05-04 00:25 | -27.22757 | 169.57832 | 31413 ft | 518 kts | 61° |
| 2026-05-04 00:26 | -27.19026 | 169.64680 | 31154 ft | 510 kts | 61° |
| 2026-05-04 00:26 | -27.15353 | 169.71514 | 31154 ft | 515 kts | 61° |
| 2026-05-04 00:27 | -27.11651 | 169.78412 | 31153 ft | 522 kts | 61° |
| 2026-05-04 00:27 | -27.07897 | 169.85381 | 31136 ft | 520 kts | 60° |